This is the latest recevied weather packets stored in our database for station/object N9CQL. If no packets are shown the sender has not sent any weather packets the latest 10 day(s).
| Time | Temp. | Humidity | Pressure | Rain* | Wind** | Luminosity | Snow |
|---|---|---|---|---|---|---|---|
| 1777830446 | 11.67° C | 78% | 1010.8 hPa | 0 mm | - | 161 W/m² | - |
| 1777830144 | 11.67° C | 77% | 1010.7 hPa | 0 mm | - | 145 W/m² | - |
| 1777829839 | 11.67° C | 78% | 1010.8 hPa | 0 mm | - | 196 W/m² | - |
| 1777829535 | 11.67° C | 78% | 1011.1 hPa | 0 mm | - | 216 W/m² | - |
| 1777829232 | 11.67° C | 79% | 1011.1 hPa | 0 mm | - | 221 W/m² | - |
| 1777828929 | 11.67° C | 78% | 1011.4 hPa | 0 mm | - | 168 W/m² | - |
| 1777828625 | 11.67° C | 77% | 1011.4 hPa | 0 mm | - | 144 W/m² | - |
| 1777828323 | 11.11° C | 78% | 1011.6 hPa | 0 mm | - | 144 W/m² | - |
| 1777828020 | 11.11° C | 79% | 1011.6 hPa | 0 mm | - | 134 W/m² | - |
| 1777827717 | 11.11° C | 80% | 1011.9 hPa | 0 mm | - | 146 W/m² | - |
| 1777827414 | 11.11° C | 81% | 1011.9 hPa | 0 mm | - | 130 W/m² | - |
| 1777827110 | 11.11° C | 81% | 1012.1 hPa | 0 mm | - | 228 W/m² | - |
| 1777826807 | 10.56° C | 83% | 1011.9 hPa | 0 mm | - | 236 W/m² | - |
| 1777826504 | 10.56° C | 84% | 1012.1 hPa | 0 mm | - | 201 W/m² | - |
| 1777826201 | 10.56° C | 84% | 1011.9 hPa | 0 mm | - | 164 W/m² | - |
| 1777825898 | 10.56° C | 84% | 1011.9 hPa | 0 mm | - | 191 W/m² | - |
| 1777825595 | 10° C | 83% | 1012.3 hPa | 0 mm | - | 100 W/m² | - |
| 1777825293 | 10.56° C | 82% | 1012.3 hPa | 0 mm | - | 95 W/m² | - |
| 1777824990 | 10.56° C | 82% | 1012.6 hPa | 0 mm | - | 115 W/m² | - |
| 1777824686 | 10.56° C | 80% | 1012.7 hPa | 0 mm | - | 132 W/m² | - |
| 1777824383 | 11.11° C | 76% | 1012.6 hPa | 0 mm | - | 111 W/m² | - |
| 1777824078 | 11.67° C | 72% | 1012.8 hPa | 0 mm | - | 68 W/m² | - |
| 1777823775 | 11.67° C | 68% | 1012.8 hPa | 0 mm | - | 66 W/m² | - |
| 1777823472 | 12.22° C | 64% | 1013 hPa | 0 mm | - | 102 W/m² | - |
| 1777823169 | 12.78° C | 61% | 1012.6 hPa | 0 mm | - | 108 W/m² | - |
* Rain latest hour (hover to see other rain measurements)
** Current wind speed in m/s (hover to see current wind gust speed)